Time;durP1;ratioP1;P1;durP2;ratioP2;P2;SDS_P1;SDS_P2;PMS_P1;PMS_P2;Temp;Humidity;BMP_temperature;BMP_pressure;BME280_temperature;BME280_humidity;BME280_pressure;Samples;Min_cycle;Max_cycle;Signal;HPM_P1;HPM_P2
2024/02/08 00:01:52;;;;;;;2.22;1.10;;;5.10;88.30;;;;;;5048067;28;20105;-68
2024/02/08 00:04:17;;;;;;;3.53;1.30;;;5.10;88.50;;;;;;5049340;28;20099;-67
2024/02/08 00:06:43;;;;;;;2.67;1.23;;;5.00;88.60;;;;;;5047963;28;20025;-68
2024/02/08 00:09:09;;;;;;;2.58;1.55;;;5.10;88.80;;;;;;5049043;28;20075;-67
2024/02/08 00:11:34;;;;;;;2.08;1.10;;;5.10;88.70;;;;;;5048466;28;20040;-67
2024/02/08 00:14:00;;;;;;;1.95;1.35;;;5.20;88.60;;;;;;5047544;28;20056;-68
2024/02/08 00:16:27;;;;;;;1.40;1.30;;;5.20;88.40;;;;;;5048009;28;20029;-68
2024/02/08 00:18:54;;;;;;;1.92;1.30;;;5.30;88.20;;;;;;5047970;28;20124;-68
2024/02/08 00:21:20;;;;;;;2.15;1.13;;;5.20;88.20;;;;;;5045836;28;20025;-67
2024/02/08 00:23:45;;;;;;;2.83;1.50;;;5.30;88.30;;;;;;5048557;28;20437;-67
2024/02/08 00:26:11;;;;;;;2.55;1.30;;;5.30;88.20;;;;;;5045694;28;20503;-67
2024/02/08 00:28:39;;;;;;;2.20;1.42;;;5.30;88.20;;;;;;5041990;28;20482;-68
2024/02/08 00:31:06;;;;;;;1.98;1.35;;;5.20;88.20;;;;;;5046783;28;20111;-68
2024/02/08 00:33:33;;;;;;;2.58;1.50;;;5.30;88.40;;;;;;5047178;28;20139;-68
2024/02/08 00:36:00;;;;;;;1.30;1.13;;;5.30;88.20;;;;;;5051388;28;20020;-67
2024/02/08 00:38:27;;;;;;;3.22;1.30;;;5.30;88.20;;;;;;5045359;28;20559;-67
2024/02/08 00:40:52;;;;;;;2.38;1.40;;;5.30;88.00;;;;;;5046919;28;20039;-67
2024/02/08 00:43:19;;;;;;;1.63;1.13;;;5.20;88.30;;;;;;5048236;28;20021;-66
2024/02/08 00:45:46;;;;;;;2.65;0.98;;;5.20;88.50;;;;;;5046898;28;20479;-67
2024/02/08 00:48:11;;;;;;;2.47;1.20;;;5.20;88.60;;;;;;5050239;28;20021;-70
2024/02/08 00:50:37;;;;;;;3.67;1.10;;;5.20;88.40;;;;;;5047395;28;20025;-67
2024/02/08 00:53:05;;;;;;;3.92;1.00;;;5.30;88.30;;;;;;5047271;28;20033;-67
2024/02/08 00:55:33;;;;;;;1.80;0.88;;;5.30;88.30;;;;;;5048034;28;20043;-67
2024/02/08 00:58:00;;;;;;;2.40;0.90;;;5.30;88.40;;;;;;5044194;28;20098;-66
2024/02/08 01:00:30;;;;;;;1.20;0.85;;;5.30;88.30;;;;;;5048891;28;20036;-72
2024/02/08 01:02:58;;;;;;;1.25;1.15;;;5.30;88.30;;;;;;5047481;28;20029;-66
2024/02/08 01:05:24;;;;;;;1.13;0.80;;;5.30;88.30;;;;;;5041176;28;20601;-67
2024/02/08 01:07:51;;;;;;;1.70;0.82;;;5.30;88.20;;;;;;5044925;28;20092;-69
2024/02/08 01:10:16;;;;;;;1.00;0.90;;;5.30;88.20;;;;;;5047602;28;20024;-66
2024/02/08 01:12:42;;;;;;;2.20;0.90;;;5.20;88.30;;;;;;5046928;28;20469;-66
2024/02/08 01:15:14;;;;;;;1.25;0.90;;;5.20;88.60;;;;;;5046238;28;20029;-66
2024/02/08 01:17:41;;;;;;;3.35;1.15;;;5.20;88.70;;;;;;5046965;28;20031;-65
2024/02/08 01:20:07;;;;;;;0.82;0.80;;;5.20;88.80;;;;;;5047054;28;20487;-66
2024/02/08 01:22:32;;;;;;;1.85;0.88;;;5.10;88.90;;;;;;5046379;28;20032;-66
2024/02/08 01:24:58;;;;;;;1.00;0.80;;;5.10;89.00;;;;;;5043732;28;20067;-66
2024/02/08 01:27:23;;;;;;;1.33;0.80;;;5.20;89.00;;;;;;5047078;28;20100;-67
2024/02/08 01:29:50;;;;;;;2.17;1.10;;;5.20;89.00;;;;;;5045871;28;20083;-66
2024/02/08 01:32:17;;;;;;;1.20;1.00;;;5.20;88.80;;;;;;5047479;28;20086;-66
2024/02/08 01:34:45;;;;;;;3.20;0.93;;;5.20;88.60;;;;;;5047234;28;20043;-66
2024/02/08 01:37:14;;;;;;;2.15;0.90;;;5.30;88.60;;;;;;5047411;28;20036;-65
2024/02/08 01:39:43;;;;;;;5.57;1.00;;;5.30;88.50;;;;;;5046722;28;20094;-65
2024/02/08 01:42:15;;;;;;;2.53;0.70;;;5.40;88.70;;;;;;5047670;28;20118;-66
2024/02/08 01:44:55;;;;;;;1.10;0.98;;;5.30;88.70;;;;;;5046732;28;20096;-65
2024/02/08 01:47:20;;;;;;;2.15;0.90;;;5.30;88.50;;;;;;5046895;28;20028;-66
2024/02/08 01:49:47;;;;;;;1.10;1.00;;;5.30;88.30;;;;;;5046120;28;20025;-66
2024/02/08 01:52:18;;;;;;;2.25;1.02;;;5.30;88.50;;;;;;5047176;28;20078;-66
2024/02/08 01:54:46;;;;;;;1.20;0.98;;;5.30;88.60;;;;;;5046845;28;20105;-67
2024/02/08 01:57:12;;;;;;;2.03;0.93;;;5.30;88.70;;;;;;5038987;28;20442;-66
2024/02/08 01:59:40;;;;;;;1.55;0.90;;;5.40;88.70;;;;;;5044386;28;20036;-65
2024/02/08 02:02:07;;;;;;;2.72;1.00;;;5.40;88.60;;;;;;5045939;28;20380;-66
2024/02/08 02:04:34;;;;;;;1.33;1.00;;;5.40;88.50;;;;;;5046083;28;20032;-67
2024/02/08 02:07:02;;;;;;;1.05;0.93;;;5.30;88.50;;;;;;5045572;28;20028;-66
2024/02/08 02:09:30;;;;;;;1.55;0.90;;;5.30;88.80;;;;;;5046957;28;20693;-67
2024/02/08 02:12:16;;;;;;;2.17;0.90;;;5.30;88.90;;;;;;5046559;28;20029;-67
2024/02/08 02:14:44;;;;;;;3.33;0.90;;;5.30;88.90;;;;;;5046002;28;20028;-67
2024/02/08 02:17:10;;;;;;;1.85;1.00;;;5.30;88.70;;;;;;5047701;28;20483;-68
2024/02/08 02:19:37;;;;;;;2.03;0.80;;;5.40;88.50;;;;;;5045199;28;20039;-67
2024/02/08 02:22:03;;;;;;;1.02;0.77;;;5.30;88.50;;;;;;5048257;28;20087;-66
2024/02/08 02:24:29;;;;;;;1.00;0.80;;;5.30;88.80;;;;;;5049924;28;20017;-66
2024/02/08 02:26:57;;;;;;;0.95;0.70;;;5.20;89.00;;;;;;5048492;28;20021;-68
2024/02/08 02:29:26;;;;;;;2.45;0.90;;;5.20;89.20;;;;;;5051005;28;20017;-67
2024/02/08 02:31:53;;;;;;;2.22;0.90;;;5.30;89.10;;;;;;5048859;28;20522;-67
2024/02/08 02:34:25;;;;;;;1.20;0.82;;;5.30;88.80;;;;;;5055832;28;20032;-68
2024/02/08 02:36:58;;;;;;;0.77;0.75;;;5.30;88.80;;;;;;5045789;28;20039;-68
2024/02/08 02:39:25;;;;;;;1.30;0.93;;;5.30;89.00;;;;;;5051198;28;20021;-68
2024/02/08 02:41:53;;;;;;;2.03;1.02;;;5.30;89.00;;;;;;5049889;28;20057;-67
2024/02/08 02:44:19;;;;;;;1.38;0.75;;;5.30;89.00;;;;;;5051881;28;20075;-66
2024/02/08 02:46:45;;;;;;;1.48;0.80;;;5.40;88.90;;;;;;5055333;28;20021;-66
2024/02/08 02:49:10;;;;;;;1.77;0.90;;;5.40;88.80;;;;;;5052028;28;20025;-67
2024/02/08 02:51:36;;;;;;;1.40;0.80;;;5.50;88.70;;;;;;5049304;28;20037;-68
2024/02/08 02:54:02;;;;;;;2.33;0.80;;;5.50;88.60;;;;;;5050339;28;20025;-67
2024/02/08 02:56:28;;;;;;;2.05;0.88;;;5.50;88.60;;;;;;5049952;28;20033;-68
2024/02/08 02:58:54;;;;;;;1.48;0.85;;;5.50;88.40;;;;;;5052751;28;20036;-67
2024/02/08 03:01:21;;;;;;;1.20;0.90;;;5.50;88.40;;;;;;5050038;28;20017;-67
2024/02/08 03:03:47;;;;;;;2.08;0.90;;;5.50;88.40;;;;;;5046280;28;20538;-66
2024/02/08 03:06:16;;;;;;;1.20;0.80;;;5.60;88.30;;;;;;5048389;28;20024;-66
2024/02/08 03:08:43;;;;;;;1.27;0.90;;;5.50;88.20;;;;;;5052300;28;20104;-67
2024/02/08 03:11:13;;;;;;;2.25;0.85;;;5.60;88.40;;;;;;5050105;28;20039;-67
2024/02/08 03:13:39;;;;;;;1.63;0.90;;;5.60;88.40;;;;;;5046115;28;20424;-67
2024/02/08 03:16:05;;;;;;;1.58;0.80;;;5.60;88.40;;;;;;5047967;28;20120;-67
2024/02/08 03:18:32;;;;;;;1.48;0.80;;;5.50;88.30;;;;;;5050046;28;20060;-66
2024/02/08 03:20:58;;;;;;;1.90;0.98;;;5.50;88.70;;;;;;5048999;28;20033;-67
2024/02/08 03:23:26;;;;;;;0.80;0.80;;;5.50;89.00;;;;;;5047033;28;20033;-67
2024/02/08 03:25:51;;;;;;;1.50;0.80;;;5.50;89.00;;;;;;5048082;28;20537;-68
2024/02/08 03:28:17;;;;;;;1.65;0.90;;;5.50;88.90;;;;;;5047866;28;20032;-68
2024/02/08 03:30:43;;;;;;;1.63;0.80;;;5.60;88.70;;;;;;5049648;28;20037;-66
2024/02/08 03:33:15;;;;;;;2.63;0.80;;;5.50;88.70;;;;;;5047647;28;20026;-67
2024/02/08 03:35:42;;;;;;;1.98;0.90;;;5.50;89.00;;;;;;5046922;28;20036;-67
2024/02/08 03:38:08;;;;;;;0.85;0.80;;;5.50;89.10;;;;;;5050310;28;20554;-68
2024/02/08 03:40:34;;;;;;;1.50;0.82;;;5.50;89.00;;;;;;5048630;28;20037;-69
2024/02/08 03:43:00;;;;;;;1.33;0.73;;;5.60;89.00;;;;;;5049095;28;20107;-68
2024/02/08 03:45:29;;;;;;;1.25;0.80;;;5.60;88.90;;;;;;5048327;28;20147;-67
2024/02/08 03:47:59;;;;;;;2.45;0.88;;;5.60;88.70;;;;;;5046630;28;20411;-67
2024/02/08 03:50:33;;;;;;;1.00;0.70;;;5.60;88.80;;;;;;5048057;28;20071;-69
2024/02/08 03:53:14;;;;;;;5.25;1.10;;;5.60;89.00;;;;;;5048792;28;20545;-70
2024/02/08 03:55:43;;;;;;;0.90;0.90;;;5.60;89.10;;;;;;5046359;28;20028;-69
2024/02/08 03:58:09;;;;;;;0.95;0.80;;;5.60;89.00;;;;;;5047286;28;20755;-70
2024/02/08 04:00:35;;;;;;;1.65;0.93;;;5.60;89.00;;;;;;5049181;28;20162;-68
2024/02/08 04:03:10;;;;;;;1.75;0.88;;;5.60;89.10;;;;;;5048744;28;20115;-67
2024/02/08 04:05:37;;;;;;;2.15;0.82;;;5.60;89.10;;;;;;5044029;28;20033;-67
2024/02/08 04:54:32;;;;;;;0.80;0.80;;;5.80;88.60;;;;;;5046926;28;20079;-67
2024/02/08 04:56:59;;;;;;;1.38;0.75;;;5.70;88.60;;;;;;5046308;28;20475;-67
2024/02/08 04:59:26;;;;;;;2.80;0.88;;;5.60;88.90;;;;;;5046262;28;20025;-66
2024/02/08 05:01:53;;;;;;;2.05;0.90;;;5.70;89.10;;;;;;5047126;28;20028;-66
2024/02/08 05:04:20;;;;;;;1.80;0.90;;;5.70;89.20;;;;;;5048047;28;20028;-67
2024/02/08 05:06:47;;;;;;;1.48;0.90;;;5.70;89.10;;;;;;5047251;28;20033;-67
2024/02/08 05:09:15;;;;;;;1.70;0.90;;;5.60;89.10;;;;;;5047390;28;20035;-66
2024/02/08 05:11:43;;;;;;;1.33;1.00;;;5.60;89.20;;;;;;5047473;28;20033;-67
2024/02/08 05:14:09;;;;;;;1.65;1.02;;;5.60;89.30;;;;;;5043312;28;20514;-67
2024/02/08 05:16:37;;;;;;;2.17;1.10;;;5.50;89.40;;;;;;5047721;28;20037;-67
2024/02/08 05:19:03;;;;;;;1.45;1.00;;;5.60;89.50;;;;;;5046910;28;20163;-66
2024/02/08 05:21:31;;;;;;;0.90;0.90;;;5.60;89.50;;;;;;5047297;28;20404;-66
2024/02/08 05:23:58;;;;;;;2.83;1.20;;;5.60;89.40;;;;;;5046903;28;20028;-65
2024/02/08 05:26:31;;;;;;;1.35;0.90;;;5.60;89.30;;;;;;5046915;28;20010;-66
2024/02/08 05:28:57;;;;;;;1.73;0.93;;;5.70;89.30;;;;;;5045119;28;20484;-65
2024/02/08 05:31:27;;;;;;;1.17;1.00;;;5.70;89.10;;;;;;5044880;28;20040;-67
2024/02/08 05:33:56;;;;;;;1.80;1.00;;;5.70;89.00;;;;;;5046591;28;20051;-65
2024/02/08 05:36:23;;;;;;;1.88;1.00;;;5.80;88.90;;;;;;5044806;28;20032;-66
2024/02/08 05:38:52;;;;;;;1.45;1.10;;;5.70;88.80;;;;;;5044875;28;20033;-65
2024/02/08 05:41:18;;;;;;;1.50;0.98;;;5.70;88.70;;;;;;5038471;28;20147;-67
2024/02/08 05:43:47;;;;;;;1.80;1.20;;;5.70;88.70;;;;;;5043486;28;20447;-67
2024/02/08 05:46:28;;;;;;;3.10;1.20;;;5.70;88.70;;;;;;5044803;28;20402;-68
2024/02/08 05:49:04;;;;;;;2.35;1.00;;;5.70;88.70;;;;;;5046504;28;20021;-68
2024/02/08 05:51:30;;;;;;;1.35;1.00;;;5.60;88.80;;;;;;5045647;28;20450;-67
2024/02/08 05:53:56;;;;;;;1.50;1.00;;;5.60;88.90;;;;;;5041534;28;20491;-68
2024/02/08 05:56:21;;;;;;;2.53;1.00;;;5.60;89.20;;;;;;5045186;28;20029;-67
2024/02/08 05:58:51;;;;;;;1.23;1.00;;;5.60;89.30;;;;;;5039753;28;20107;-68
2024/02/08 06:01:20;;;;;;;3.67;1.10;;;5.60;89.30;;;;;;5042737;28;20032;-68
2024/02/08 06:03:49;;;;;;;2.92;1.10;;;5.50;89.30;;;;;;5041858;28;20109;-68
2024/02/08 06:06:17;;;;;;;2.25;1.10;;;5.50;89.20;;;;;;5043330;28;20013;-67
2024/02/08 06:08:44;;;;;;;2.80;1.05;;;5.40;89.30;;;;;;5042561;28;20022;-67
2024/02/08 06:11:37;;;;;;;1.52;1.10;;;5.30;89.50;;;;;;5035223;28;20056;-67
2024/02/08 06:13:59;;;;;;;2.38;1.20;;;5.30;89.70;;;;;;5041949;28;20033;-67
2024/02/08 06:16:33;;;;;;;2.97;1.23;;;5.20;89.70;;;;;;5043000;28;20031;-67
2024/02/08 06:19:02;;;;;;;3.65;1.60;;;5.10;89.70;;;;;;5043458;28;20086;-66
2024/02/08 06:21:41;;;;;;;2.78;1.17;;;5.10;89.80;;;;;;5044479;28;20037;-67
2024/02/08 06:26:55;;;;;;;2.22;1.10;;;5.10;90.00;;;;;;5043678;28;20592;-66
2024/02/08 06:29:38;;;;;;;2.13;0.90;;;5.10;89.90;;;;;;5042959;28;20021;-66
2024/02/08 06:35:11;;;;;;;5.07;1.45;;;5.10;89.80;;;;;;5022954;28;20079;-67
2024/02/08 06:37:44;;;;;;;3.45;1.33;;;5.00;89.60;;;;;;5044846;28;20029;-67
2024/02/08 06:40:21;;;;;;;1.88;1.55;;;5.00;89.70;;;;;;5044741;28;20025;-67
2024/02/08 06:45:44;;;;;;;3.90;1.30;;;4.90;89.60;;;;;;5042218;28;20099;-66
2024/02/08 07:37:18;;;;;;;4.45;2.05;;;4.60;88.90;;;;;;5044900;28;20565;-68
2024/02/08 07:39:53;;;;;;;2.78;1.67;;;4.70;88.80;;;;;;5044132;28;20038;-66
2024/02/08 07:42:41;;;;;;;3.08;1.60;;;4.70;88.80;;;;;;5045628;28;20018;-67
2024/02/08 07:45:12;;;;;;;4.22;1.90;;;4.70;88.80;;;;;;5042019;28;20029;-66
2024/02/08 07:47:39;;;;;;;5.53;2.80;;;4.60;88.70;;;;;;5043004;28;20028;-66
2024/02/08 07:50:08;;;;;;;6.40;2.03;;;4.60;88.70;;;;;;5042054;28;20040;-66
2024/02/08 07:52:46;;;;;;;8.45;2.80;;;4.60;89.10;;;;;;5048426;28;20033;-68
2024/02/08 07:55:20;;;;;;;6.85;2.90;;;4.60;89.10;;;;;;5046907;28;20037;-68
2024/02/08 07:57:51;;;;;;;6.10;2.80;;;4.50;89.10;;;;;;5046863;28;20463;-67
2024/02/08 08:00:32;;;;;;;5.13;2.63;;;4.40;89.30;;;;;;5038532;28;20043;-67
2024/02/08 08:03:07;;;;;;;5.80;3.30;;;4.40;89.50;;;;;;5042899;28;20763;-67
2024/02/08 08:05:41;;;;;;;8.43;3.78;;;4.50;89.60;;;;;;5037158;28;21323;-67
2024/02/08 08:08:24;;;;;;;5.30;2.60;;;4.40;89.70;;;;;;5041811;28;20028;-67
2024/02/08 08:11:02;;;;;;;9.85;3.42;;;4.40;89.90;;;;;;5043151;28;20033;-67
2024/02/08 08:18:58;;;;;;;7.72;3.40;;;4.50;89.90;;;;;;5044431;28;20040;-67
2024/02/08 08:21:29;;;;;;;7.60;3.45;;;4.50;90.00;;;;;;5044495;28;20029;-68
2024/02/08 08:24:02;;;;;;;;;;;4.50;90.00;;;;;;5043782;28;20039;-67
2024/02/08 08:26:43;;;;;;;4.85;3.13;;;4.50;90.00;;;;;;5042828;28;20639;-65
2024/02/08 08:29:18;;;;;;;4.75;2.72;;;4.50;90.10;;;;;;5041821;28;20031;-67
2024/02/08 08:31:51;;;;;;;4.10;2.53;;;4.70;90.10;;;;;;5043331;28;20017;-67
2024/02/08 08:37:02;;;;;;;5.70;3.20;;;4.80;89.90;;;;;;5043977;28;20048;-68
2024/02/08 08:42:16;;;;;;;3.30;2.53;;;4.90;89.80;;;;;;5039850;28;20087;-66
2024/02/08 08:44:59;;;;;;;4.47;2.25;;;4.90;89.70;;;;;;5044898;28;20063;-69
2024/02/08 08:47:27;;;;;;;4.03;2.78;;;5.00;89.70;;;;;;5042211;28;20067;-67
2024/02/08 08:49:54;;;;;;;6.60;2.90;;;5.10;89.80;;;;;;5043029;28;20123;-66
2024/02/08 08:52:26;;;;;;;6.15;2.80;;;5.10;89.50;;;;;;5041920;28;20553;-67
2024/02/08 08:55:01;;;;;;;9.98;3.40;;;5.20;89.40;;;;;;5040723;28;20029;-68
2024/02/08 08:57:27;;;;;;;6.82;3.33;;;5.10;89.40;;;;;;5043579;28;20020;-68
2024/02/08 08:59:56;;;;;;;7.55;3.20;;;5.20;89.60;;;;;;5044306;28;20028;-68
2024/02/08 09:02:22;;;;;;;5.93;2.70;;;5.20;89.50;;;;;;5043358;28;20039;-66
2024/02/08 09:04:51;;;;;;;5.32;2.90;;;5.20;89.50;;;;;;5044376;28;20028;-67
2024/02/08 09:07:17;;;;;;;5.68;2.90;;;5.20;89.60;;;;;;5040946;28;20074;-66
2024/02/08 09:10:02;;;;;;;5.38;2.60;;;5.10;89.60;;;;;;5043008;28;20021;-67
2024/02/08 09:12:38;;;;;;;7.13;2.25;;;5.20;89.90;;;;;;5039214;28;20053;-66
2024/02/08 09:15:20;;;;;;;4.38;2.40;;;5.20;89.90;;;;;;5041356;28;20104;-67
2024/02/08 09:17:51;;;;;;;6.13;2.60;;;5.30;89.90;;;;;;5047789;28;20495;-67
2024/02/08 09:20:23;;;;;;;5.28;2.42;;;5.30;89.90;;;;;;5044059;28;20479;-68
2024/02/08 09:22:52;;;;;;;5.70;2.40;;;5.40;89.90;;;;;;5042958;28;20041;-68
2024/02/08 09:25:19;;;;;;;6.47;2.60;;;5.40;90.00;;;;;;5040508;28;20009;-67
2024/02/08 09:27:47;;;;;;;4.15;2.38;;;5.40;89.90;;;;;;5044867;28;20045;-68
2024/02/08 09:30:15;;;;;;;4.47;2.53;;;5.50;89.90;;;;;;5039565;28;20021;-67
2024/02/08 09:32:44;;;;;;;3.40;2.03;;;5.50;89.70;;;;;;5041843;28;20033;-67
2024/02/08 09:35:12;;;;;;;4.32;2.05;;;5.50;89.60;;;;;;5038607;28;20615;-68
2024/02/08 09:37:45;;;;;;;3.72;2.30;;;5.50;89.60;;;;;;5041540;28;20483;-67
2024/02/08 09:42:57;;;;;;;9.23;3.47;;;5.50;89.70;;;;;;5046722;28;20047;-66
2024/02/08 09:48:06;;;;;;;7.90;2.63;;;5.40;90.00;;;;;;5041136;28;20044;-66
2024/02/08 09:50:36;;;;;;;9.07;3.70;;;5.40;90.00;;;;;;5044403;28;20569;-67
2024/02/08 09:53:19;;;;;;;5.10;2.72;;;5.40;90.00;;;;;;5046340;28;20032;-68
2024/02/08 09:55:55;;;;;;;6.97;2.78;;;5.50;90.10;;;;;;5039006;28;20024;-68
2024/02/08 09:58:37;;;;;;;8.60;3.40;;;5.50;90.00;;;;;;5041338;28;20032;-68
2024/02/08 10:01:21;;;;;;;6.53;2.85;;;5.40;90.00;;;;;;5039650;28;20116;-68
2024/02/08 10:03:48;;;;;;;6.05;3.50;;;5.40;90.10;;;;;;5043435;28;20368;-67
2024/02/08 10:06:24;;;;;;;6.78;3.20;;;5.30;90.10;;;;;;5044073;28;20047;-67
2024/02/08 10:09:08;;;;;;;9.35;4.28;;;5.30;90.20;;;;;;5039395;28;20033;-67
2024/02/08 10:11:43;;;;;;;7.90;4.10;;;5.20;90.30;;;;;;5040577;28;20025;-67
2024/02/08 10:14:25;;;;;;;6.50;3.50;;;5.20;90.40;;;;;;5041062;28;20040;-66
2024/02/08 10:16:53;;;;;;;11.25;4.40;;;5.30;90.40;;;;;;5041802;28;20029;-68
2024/02/08 10:19:28;;;;;;;10.57;4.60;;;5.20;90.50;;;;;;5042952;28;20028;-67
2024/02/08 10:21:59;;;;;;;8.23;4.45;;;5.10;90.60;;;;;;5043932;28;20108;-68
2024/02/08 10:24:27;;;;;;;9.00;3.60;;;5.20;90.70;;;;;;5044552;28;20067;-67
2024/02/08 10:26:58;;;;;;;8.20;4.00;;;5.30;90.70;;;;;;5037869;28;20032;-67
2024/02/08 10:29:25;;;;;;;10.77;4.55;;;5.30;90.70;;;;;;5033067;28;20024;-67
2024/02/08 10:31:54;;;;;;;8.27;3.13;;;5.30;90.70;;;;;;5044125;28;20044;-66
2024/02/08 10:34:33;;;;;;;8.45;4.22;;;5.40;90.70;;;;;;5043825;28;20033;-66
2024/02/08 10:36:59;;;;;;;6.85;3.70;;;5.30;90.70;;;;;;5044132;28;20029;-68
2024/02/08 10:39:25;;;;;;;8.55;3.20;;;5.30;90.70;;;;;;5048325;28;20016;-66
2024/02/08 10:44:24;;;;;;;7.32;3.40;;;5.40;90.70;;;;;;5048530;28;20510;-67
2024/02/08 10:46:55;;;;;;;10.07;3.72;;;5.40;90.60;;;;;;5048352;28;20037;-68
2024/02/08 10:49:22;;;;;;;;;;;5.50;90.60;;;;;;5046079;28;20364;-67
2024/02/08 10:51:50;;;;;;;5.45;3.03;;;5.50;90.60;;;;;;5046997;28;20299;-67
2024/02/08 10:54:23;;;;;;;7.22;2.97;;;5.50;90.60;;;;;;5050228;28;20039;-68
2024/02/08 10:57:06;;;;;;;10.98;3.90;;;5.50;90.60;;;;;;5043494;28;20079;-68
2024/02/08 10:59:39;;;;;;;8.00;3.60;;;5.50;90.60;;;;;;5050744;28;20037;-67
2024/02/08 11:02:08;;;;;;;8.40;4.32;;;5.40;90.70;;;;;;5049844;28;20029;-68
2024/02/08 11:04:46;;;;;;;9.55;4.45;;;5.40;90.70;;;;;;5051373;28;20119;-68
2024/02/08 11:07:33;;;;;;;8.25;3.70;;;5.40;90.70;;;;;;5048475;28;20060;-67
2024/02/08 11:09:59;;;;;;;7.28;3.58;;;5.50;90.70;;;;;;5047248;28;20027;-68
2024/02/08 11:12:29;;;;;;;8.98;3.80;;;5.50;90.70;;;;;;5042251;28;20017;-68
2024/02/08 11:15:15;;;;;;;6.65;3.20;;;5.50;90.70;;;;;;5047439;28;20017;-67
2024/02/08 11:17:49;;;;;;;7.40;3.10;;;5.50;90.80;;;;;;5046463;28;20036;-67
2024/02/08 11:20:33;;;;;;;7.18;3.40;;;5.50;90.70;;;;;;5048688;28;20036;-67
2024/02/08 11:23:09;;;;;;;7.97;3.50;;;5.50;90.80;;;;;;5045097;28;20105;-67
2024/02/08 11:25:36;;;;;;;7.95;3.80;;;5.60;90.80;;;;;;5050885;28;20078;-67
2024/02/08 11:28:24;;;;;;;9.82;4.88;;;5.50;90.80;;;;;;5049185;28;20025;-66
2024/02/08 11:30:51;;;;;;;9.23;3.80;;;5.40;90.90;;;;;;5051656;28;20403;-68
2024/02/08 11:33:22;;;;;;;7.03;3.47;;;5.40;91.00;;;;;;5049312;28;20031;-66
2024/02/08 11:35:57;;;;;;;7.30;3.03;;;5.50;90.90;;;;;;5048806;28;20051;-68
2024/02/08 11:38:27;;;;;;;6.38;3.17;;;5.50;90.90;;;;;;5048965;28;20055;-67
2024/02/08 11:40:57;;;;;;;6.93;3.60;;;5.40;90.90;;;;;;5047588;28;20702;-67
2024/02/08 11:43:24;;;;;;;8.85;4.55;;;5.40;91.00;;;;;;5046969;28;20394;-67
2024/02/08 11:45:54;;;;;;;7.50;3.15;;;5.40;91.00;;;;;;5047925;28;20025;-68
2024/02/08 11:48:24;;;;;;;7.90;2.95;;;5.50;91.20;;;;;;5048915;28;20041;-67
2024/02/08 11:50:50;;;;;;;9.52;3.25;;;5.50;91.10;;;;;;5048682;28;20464;-66
2024/02/08 11:53:37;;;;;;;5.45;2.97;;;5.60;91.10;;;;;;5048414;28;20455;-68
2024/02/08 11:56:10;;;;;;;6.63;2.90;;;5.60;91.10;;;;;;5048658;28;20078;-67
2024/02/08 11:58:54;;;;;;;7.68;3.10;;;5.70;91.00;;;;;;5043540;28;20112;-66
2024/02/08 12:01:25;;;;;;;8.40;2.75;;;5.70;91.00;;;;;;5046449;28;20094;-66
2024/02/08 12:03:53;;;;;;;3.90;1.90;;;5.70;91.10;;;;;;5048258;28;20537;-66
2024/02/08 12:06:21;;;;;;;5.97;2.47;;;5.80;91.00;;;;;;5047949;28;20104;-66
2024/02/08 12:09:03;;;;;;;8.80;4.60;;;5.80;91.00;;;;;;5049275;28;20025;-67
2024/02/08 12:11:31;;;;;;;8.23;3.55;;;5.60;90.90;;;;;;5049019;28;20028;-67
2024/02/08 12:14:04;;;;;;;9.93;4.00;;;5.50;91.10;;;;;;5045631;28;20025;-67
2024/02/08 12:16:30;;;;;;;8.48;4.15;;;5.40;91.20;;;;;;5042728;28;20051;-67
2024/02/08 12:18:56;;;;;;;9.23;3.22;;;5.50;91.40;;;;;;5048996;28;20043;-67
2024/02/08 12:21:23;;;;;;;5.72;3.33;;;5.50;91.40;;;;;;5048415;28;20413;-66
2024/02/08 12:23:57;;;;;;;7.75;3.28;;;5.50;91.40;;;;;;5048073;28;20025;-66
2024/02/08 12:26:25;;;;;;;11.20;4.32;;;5.50;91.30;;;;;;5048515;28;20502;-67
2024/02/08 12:28:56;;;;;;;8.65;4.05;;;5.40;91.40;;;;;;5048861;28;20572;-67
2024/02/08 12:31:24;;;;;;;11.98;4.50;;;5.40;91.50;;;;;;5047687;28;20100;-66
2024/02/08 12:33:51;;;;;;;10.93;3.67;;;5.30;91.50;;;;;;5049024;28;20025;-66
2024/02/08 12:36:19;;;;;;;6.10;3.05;;;5.30;91.60;;;;;;5045082;28;20051;-67
2024/02/08 12:38:46;;;;;;;9.45;3.83;;;5.30;91.70;;;;;;5049400;28;20515;-67
2024/02/08 12:41:12;;;;;;;9.77;4.15;;;5.30;91.70;;;;;;5048190;28;20021;-66
2024/02/08 12:43:38;;;;;;;11.43;4.60;;;5.20;91.80;;;;;;5048912;28;20021;-66
2024/02/08 12:46:07;;;;;;;13.35;6.13;;;5.20;91.90;;;;;;5047930;28;20514;-66
2024/02/08 12:48:34;;;;;;;12.63;4.90;;;5.20;91.90;;;;;;5048772;28;20025;-66
2024/02/08 12:51:03;;;;;;;11.40;4.82;;;5.10;91.90;;;;;;5049405;28;20078;-66
2024/02/08 12:53:30;;;;;;;10.63;5.35;;;5.00;92.00;;;;;;5046947;28;20098;-67
2024/02/08 12:56:05;;;;;;;12.40;5.68;;;4.90;92.20;;;;;;5046178;28;20033;-67
2024/02/08 12:58:30;;;;;;;7.40;3.70;;;4.90;92.40;;;;;;5048574;28;20112;-67
2024/02/08 13:00:57;;;;;;;11.25;4.78;;;4.90;92.50;;;;;;5048342;28;20451;-67
2024/02/08 13:03:26;;;;;;;10.25;4.20;;;4.90;92.60;;;;;;5048171;28;20102;-67
2024/02/08 13:05:51;;;;;;;10.30;4.10;;;4.90;92.60;;;;;;5047259;28;20026;-67
2024/02/08 13:08:22;;;;;;;10.00;3.85;;;4.90;92.50;;;;;;5048438;28;20025;-67
2024/02/08 13:11:20;;;;;;;9.60;4.00;;;4.90;92.50;;;;;;5046674;28;20079;-68
2024/02/08 13:13:48;;;;;;;11.02;4.00;;;4.80;92.40;;;;;;5051628;28;20048;-68
2024/02/08 13:16:14;;;;;;;6.70;3.45;;;4.80;92.40;;;;;;5047003;28;20032;-67
2024/02/08 13:18:42;;;;;;;9.35;3.42;;;4.70;92.50;;;;;;5050214;28;20036;-67
2024/02/08 13:21:08;;;;;;;5.35;2.50;;;4.70;92.60;;;;;;5047672;28;20109;-68
2024/02/08 13:23:35;;;;;;;8.77;2.67;;;4.70;92.60;;;;;;5050935;28;20032;-67
2024/02/08 13:26:01;;;;;;;10.27;3.90;;;4.70;92.50;;;;;;5047789;28;20052;-68
2024/02/08 13:28:27;;;;;;;6.40;3.20;;;4.70;92.40;;;;;;5046548;28;20025;-67
2024/02/08 13:30:57;;;;;;;5.65;2.83;;;4.70;92.50;;;;;;5049819;28;20475;-67
2024/02/08 13:33:23;;;;;;;8.07;2.90;;;4.70;92.50;;;;;;5047750;28;20035;-67
2024/02/08 13:35:52;;;;;;;8.13;3.53;;;4.70;92.60;;;;;;5050818;28;20419;-68
2024/02/08 13:38:22;;;;;;;6.07;3.00;;;4.60;92.50;;;;;;5046000;28;20024;-69
2024/02/08 13:40:52;;;;;;;8.50;3.83;;;4.60;92.70;;;;;;5046431;28;20112;-68
2024/02/08 13:43:19;;;;;;;7.78;3.15;;;4.50;92.90;;;;;;5046285;28;20025;-68
2024/02/08 13:45:46;;;;;;;5.25;2.90;;;4.50;92.90;;;;;;5042917;28;20033;-68
2024/02/08 13:48:17;;;;;;;6.85;3.00;;;4.50;93.00;;;;;;5046821;28;20032;-68
2024/02/08 13:50:43;;;;;;;6.13;2.72;;;4.40;93.00;;;;;;5049110;28;20106;-68
2024/02/08 13:53:14;;;;;;;5.82;2.35;;;4.40;93.10;;;;;;5048118;28;20032;-68
2024/02/08 13:55:45;;;;;;;5.72;2.50;;;4.30;93.20;;;;;;5044219;28;20029;-66
2024/02/08 13:58:12;;;;;;;6.22;2.83;;;4.30;93.30;;;;;;5046281;28;20025;-67
2024/02/08 14:00:41;;;;;;;4.70;2.20;;;4.20;93.30;;;;;;5045309;28;20017;-67
2024/02/08 14:03:08;;;;;;;6.03;2.25;;;4.20;93.30;;;;;;5046407;28;20036;-67
2024/02/08 14:05:39;;;;;;;6.03;2.00;;;4.20;93.30;;;;;;5041707;28;20045;-67
2024/02/08 14:08:06;;;;;;;4.67;1.90;;;4.20;93.20;;;;;;5047925;28;20028;-69
2024/02/08 14:10:32;;;;;;;3.13;1.80;;;4.20;93.30;;;;;;5043536;28;20021;-68
2024/02/08 14:13:09;;;;;;;4.68;1.85;;;4.20;93.30;;;;;;5045792;28;20058;-67
2024/02/08 14:15:45;;;;;;;2.65;1.40;;;4.20;93.20;;;;;;5051927;28;20021;-67
2024/02/08 14:18:22;;;;;;;4.13;1.70;;;4.20;93.20;;;;;;5046522;28;20029;-67
2024/02/08 14:20:56;;;;;;;2.72;1.48;;;4.20;93.10;;;;;;5051125;28;20487;-68
2024/02/08 14:23:37;;;;;;;3.35;1.73;;;4.30;93.10;;;;;;5049512;28;20510;-67
2024/02/08 14:28:33;;;;;;;2.70;1.60;;;4.30;93.10;;;;;;5049354;28;20036;-68
2024/02/08 14:31:02;;;;;;;3.63;1.80;;;4.30;93.20;;;;;;5054534;28;20036;-67
2024/02/08 14:33:28;;;;;;;3.78;1.70;;;4.20;93.40;;;;;;5051538;28;20545;-68
2024/02/08 14:35:54;;;;;;;4.53;2.20;;;4.20;93.60;;;;;;5048828;28;20033;-67
2024/02/08 14:38:21;;;;;;;4.93;2.22;;;4.20;93.70;;;;;;5049863;28;20028;-67
2024/02/08 14:40:47;;;;;;;4.07;2.25;;;4.20;94.10;;;;;;5046863;28;20025;-68
2024/02/08 14:43:25;;;;;;;2.55;1.50;;;4.10;94.00;;;;;;5047665;28;20032;-69
2024/02/08 14:45:54;;;;;;;2.08;1.50;;;4.20;94.00;;;;;;5048686;28;21315;-68
2024/02/08 14:48:37;;;;;;;3.97;2.30;;;4.30;94.00;;;;;;5048912;28;20059;-68
2024/02/08 14:53:45;;;;;;;3.90;2.25;;;4.20;94.20;;;;;;5050028;28;20087;-68
2024/02/08 14:56:18;;;;;;;5.60;2.50;;;4.10;94.50;;;;;;5049398;28;20029;-68
2024/02/08 14:58:56;;;;;;;5.10;2.58;;;4.10;94.70;;;;;;5052630;28;20071;-67
2024/02/08 15:01:38;;;;;;;6.82;2.95;;;4.10;95.20;;;;;;5050589;28;20023;-68
2024/02/08 15:04:07;;;;;;;5.00;2.88;;;4.00;95.30;;;;;;5047438;28;20033;-68
2024/02/08 15:06:38;;;;;;;5.43;2.40;;;4.00;95.60;;;;;;5049536;28;20042;-67
2024/02/08 15:12:09;;;;;;;5.40;2.55;;;3.90;96.40;;;;;;5048054;28;20153;-66
2024/02/08 15:14:38;;;;;;;6.90;2.50;;;3.80;96.40;;;;;;5048985;28;20052;-68
2024/02/08 15:17:07;;;;;;;5.57;2.30;;;3.80;96.70;;;;;;5046718;28;20039;-67
2024/02/08 15:19:45;;;;;;;4.53;2.25;;;3.80;96.80;;;;;;5051663;28;20055;-67
2024/02/08 15:22:43;;;;;;;4.93;2.42;;;3.80;97.00;;;;;;5047142;28;20143;-68
2024/02/08 15:25:05;;;;;;;4.38;2.28;;;3.80;97.60;;;;;;5046469;28;20080;-67